createdAt,value
2017-07-15T00:00:41.487Z,0
2017-07-15T00:01:50.144Z,0
2017-07-15T00:02:59.103Z,0
2017-07-15T00:04:07.771Z,0
2017-07-15T00:05:16.414Z,0
2017-07-15T00:06:25.055Z,0
2017-07-15T00:07:34.366Z,0
2017-07-15T00:08:43.637Z,0
2017-07-15T00:09:52.609Z,0
2017-07-15T00:11:01.884Z,0
2017-07-15T00:12:11.469Z,0
2017-07-15T00:13:21.049Z,0
2017-07-15T00:14:29.709Z,0
2017-07-15T00:15:38.361Z,0
2017-07-15T00:16:47.327Z,0
2017-07-15T00:17:56.601Z,0
2017-07-15T00:19:05.559Z,0
2017-07-15T00:20:14.516Z,0
2017-07-15T00:21:23.468Z,0
2017-07-15T00:22:32.105Z,0
2017-07-15T00:23:40.758Z,0
2017-07-15T00:24:49.731Z,0
2017-07-15T00:25:58.690Z,0
2017-07-15T00:27:08.275Z,0
2017-07-15T00:28:17.249Z,0
2017-07-15T00:29:26.665Z,0
2017-07-15T00:30:35.981Z,0
2017-07-15T00:31:45.275Z,0
2017-07-15T00:32:54.296Z,0
2017-07-15T00:34:02.952Z,0
2017-07-15T00:35:11.917Z,0
2017-07-15T00:36:20.874Z,0
2017-07-15T00:37:29.837Z,0
2017-07-15T00:38:38.494Z,0
2017-07-15T00:39:47.774Z,0
2017-07-15T00:40:56.742Z,0
2017-07-15T00:42:05.393Z,0
2017-07-15T00:43:14.700Z,0
2017-07-15T00:44:23.655Z,0
2017-07-15T00:45:32.927Z,0
2017-07-15T00:46:41.586Z,0
2017-07-15T00:47:50.861Z,0
2017-07-15T00:49:00.127Z,0
2017-07-15T00:50:09.723Z,0
2017-07-15T00:51:18.669Z,0
2017-07-15T00:52:27.320Z,0
2017-07-15T00:53:36.586Z,0
2017-07-15T00:54:46.180Z,0
2017-07-15T00:55:55.452Z,0
2017-07-15T00:57:04.721Z,0
2017-07-15T00:58:13.989Z,0
2017-07-15T00:59:22.633Z,0
2017-07-15T01:00:31.923Z,0
2017-07-15T01:01:40.883Z,0
2017-07-15T01:02:49.537Z,0
2017-07-15T01:03:58.805Z,0
2017-07-15T01:05:07.446Z,0
2017-07-15T01:06:16.082Z,0
2017-07-15T01:07:25.355Z,0
2017-07-15T01:08:34.619Z,0
2017-07-15T01:09:43.886Z,0
2017-07-15T01:10:52.527Z,0
2017-07-15T01:12:02.446Z,0
2017-07-15T01:13:11.721Z,0
2017-07-15T01:14:20.998Z,0
2017-07-15T01:15:30.010Z,0
2017-07-15T01:16:39.281Z,0
2017-07-15T01:17:48.240Z,0
2017-07-15T01:18:56.903Z,0
2017-07-15T01:20:06.182Z,0
2017-07-15T01:21:15.149Z,0
2017-07-15T01:22:24.479Z,0
2017-07-15T01:23:33.432Z,0
2017-07-15T01:24:42.081Z,0
2017-07-15T01:25:51.046Z,0
2017-07-15T01:27:00.025Z,0
2017-07-15T01:28:08.973Z,0
2017-07-15T01:29:18.263Z,0
2017-07-15T01:30:26.903Z,0
2017-07-15T01:31:36.176Z,0
2017-07-15T01:32:44.816Z,0
2017-07-15T01:33:53.525Z,0
2017-07-15T01:35:02.173Z,0
2017-07-15T01:36:11.141Z,0
2017-07-15T01:37:20.412Z,0
2017-07-15T01:38:29.364Z,0
2017-07-15T01:39:38.642Z,0
2017-07-15T01:40:47.918Z,0
2017-07-15T01:41:57.188Z,0
2017-07-15T01:43:06.467Z,0
2017-07-15T01:44:15.417Z,0
2017-07-15T01:45:24.366Z,0
2017-07-15T01:46:33.019Z,0
2017-07-15T01:47:41.969Z,0
2017-07-15T01:48:50.607Z,0
2017-07-15T01:49:59.884Z,0
2017-07-15T01:51:09.463Z,0
2017-07-15T01:52:18.122Z,0
2017-07-15T01:53:27.386Z,0
2017-07-15T01:54:36.343Z,0
2017-07-15T01:55:44.987Z,0
2017-07-15T01:56:54.585Z,0
2017-07-15T01:58:03.535Z,0
2017-07-15T01:59:12.487Z,0
2017-07-15T02:00:21.440Z,0
2017-07-15T02:01:30.710Z,0
2017-07-15T02:02:39.983Z,0
2017-07-15T02:03:49.563Z,0
2017-07-15T02:04:58.201Z,0
2017-07-15T02:06:07.462Z,0
2017-07-15T02:07:16.792Z,0
2017-07-15T02:08:26.078Z,0
2017-07-15T02:09:35.049Z,0
2017-07-15T02:10:43.698Z,0
2017-07-15T02:11:52.963Z,0
2017-07-15T02:13:02.240Z,0
2017-07-15T02:14:11.820Z,0
2017-07-15T02:15:20.768Z,0
2017-07-15T02:16:29.726Z,0
2017-07-15T02:17:38.359Z,0
2017-07-15T02:18:47.649Z,0
2017-07-15T02:19:56.610Z,0
2017-07-15T02:21:05.248Z,0
2017-07-15T02:22:14.205Z,0
2017-07-15T02:23:23.158Z,0
2017-07-15T02:24:31.812Z,0
2017-07-15T02:25:41.096Z,0
2017-07-15T02:26:50.057Z,0
2017-07-15T02:27:58.701Z,0
2017-07-15T02:29:07.348Z,0
2017-07-15T02:30:16.290Z,0
2017-07-15T02:31:24.939Z,0
2017-07-15T02:32:34.209Z,0
2017-07-15T02:33:43.156Z,0
2017-07-15T02:34:52.113Z,0
2017-07-15T02:36:00.765Z,0
2017-07-15T02:37:09.775Z,0
2017-07-15T02:38:18.721Z,0
2017-07-15T02:39:27.980Z,0
2017-07-15T02:40:37.250Z,0
2017-07-15T02:41:46.207Z,0
2017-07-15T02:42:55.157Z,0
2017-07-15T02:44:04.115Z,0
2017-07-15T02:45:13.069Z,0
2017-07-15T02:46:22.336Z,0
2017-07-15T02:47:31.938Z,0
2017-07-15T02:48:41.205Z,0
2017-07-15T02:49:50.175Z,0
2017-07-15T02:50:59.451Z,0
2017-07-15T02:52:08.086Z,0
2017-07-15T02:53:17.409Z,0
2017-07-15T02:54:26.669Z,0
2017-07-15T02:55:35.631Z,0
2017-07-15T02:56:44.276Z,0
2017-07-15T02:57:53.553Z,0
2017-07-15T02:59:02.196Z,0
2017-07-15T03:00:11.146Z,0
2017-07-15T03:01:20.413Z,0
2017-07-15T03:02:29.690Z,0
2017-07-15T03:03:38.328Z,0
2017-07-15T03:04:47.290Z,0
2017-07-15T03:05:57.186Z,0
2017-07-15T03:07:05.837Z,0
2017-07-15T03:08:15.417Z,0
2017-07-15T03:09:24.052Z,0
2017-07-15T03:10:33.641Z,0
2017-07-15T03:11:42.599Z,0
2017-07-15T03:12:51.238Z,0
2017-07-15T03:14:00.502Z,0
2017-07-15T03:15:10.111Z,0
2017-07-15T03:16:19.059Z,0
2017-07-15T03:17:28.341Z,0
2017-07-15T03:18:37.299Z,0
2017-07-15T03:19:46.886Z,0
2017-07-15T03:20:55.541Z,0
2017-07-15T03:22:04.497Z,0
2017-07-15T03:23:13.142Z,0
2017-07-15T03:24:22.721Z,0
2017-07-15T03:25:32.323Z,0
2017-07-15T03:26:41.322Z,0
2017-07-15T03:27:50.915Z,0
2017-07-15T03:29:00.184Z,0
2017-07-15T03:30:09.138Z,0
2017-07-15T03:31:18.132Z,0
2017-07-15T03:32:27.724Z,0
2017-07-15T03:33:36.999Z,0
2017-07-15T03:34:45.646Z,0
2017-07-15T03:35:54.605Z,0
2017-07-15T03:37:03.248Z,0
2017-07-15T03:38:12.205Z,0
2017-07-15T03:39:21.171Z,0
2017-07-15T03:40:30.431Z,0
2017-07-15T03:41:39.393Z,0
2017-07-15T03:42:48.023Z,0
2017-07-15T03:43:56.963Z,0
2017-07-15T03:45:05.942Z,0
2017-07-15T03:46:14.891Z,0
2017-07-15T03:47:23.532Z,5
2017-07-15T03:48:32.807Z,5
2017-07-15T03:49:42.096Z,5
2017-07-15T03:50:50.748Z,5
2017-07-15T03:52:00.020Z,5
2017-07-15T03:53:08.659Z,5
2017-07-15T03:54:17.298Z,5
2017-07-15T03:55:26.567Z,5
2017-07-15T03:56:35.531Z,5
2017-07-15T03:57:44.489Z,5
2017-07-15T03:58:53.202Z,5
2017-07-15T04:00:01.846Z,5
2017-07-15T04:01:10.800Z,5
2017-07-15T04:02:19.433Z,5
2017-07-15T04:03:28.379Z,5
2017-07-15T04:04:37.329Z,5
2017-07-15T04:05:45.969Z,5
2017-07-15T04:06:54.931Z,5
2017-07-15T04:08:03.950Z,5
2017-07-15T04:09:12.905Z,5
2017-07-15T04:10:22.179Z,5
2017-07-15T04:11:31.449Z,5
2017-07-15T04:12:40.093Z,5
2017-07-15T04:13:49.683Z,5
2017-07-15T04:14:58.326Z,10
2017-07-15T04:16:07.282Z,10
2017-07-15T04:17:16.567Z,10
2017-07-15T04:18:25.864Z,10
2017-07-15T04:19:35.449Z,10
2017-07-15T04:20:44.406Z,10
2017-07-15T04:21:53.364Z,5
2017-07-15T04:23:02.621Z,5
2017-07-15T04:24:11.908Z,5
2017-07-15T04:25:20.869Z,5
2017-07-15T04:26:29.511Z,5
2017-07-15T04:27:38.153Z,5
2017-07-15T04:28:47.429Z,5
2017-07-15T04:29:56.070Z,5
2017-07-15T04:31:05.335Z,10
2017-07-15T04:32:14.292Z,10
2017-07-15T04:33:23.555Z,10
2017-07-15T04:34:32.821Z,10
2017-07-15T04:35:41.814Z,10
2017-07-15T04:36:50.775Z,10
2017-07-15T04:38:00.364Z,15
2017-07-15T04:39:09.016Z,15
2017-07-15T04:40:18.035Z,15
2017-07-15T04:41:26.997Z,15
2017-07-15T04:42:35.958Z,15
2017-07-15T04:43:45.226Z,15
2017-07-15T04:44:54.496Z,15
2017-07-15T04:46:03.847Z,15
2017-07-15T04:47:13.441Z,15
2017-07-15T04:48:23.020Z,15
2017-07-15T04:49:31.974Z,15
2017-07-15T04:50:40.935Z,15
2017-07-15T04:51:49.580Z,10
2017-07-15T04:52:58.228Z,10
2017-07-15T04:54:07.815Z,10
2017-07-15T04:55:17.080Z,10
2017-07-15T04:56:26.356Z,10
2017-07-15T04:57:35.937Z,10
2017-07-15T04:58:45.199Z,10
2017-07-15T04:59:54.177Z,10
2017-07-15T05:01:03.133Z,10
2017-07-15T05:02:12.440Z,15
2017-07-15T05:03:21.130Z,15
2017-07-15T05:04:30.087Z,10
2017-07-15T05:05:39.100Z,10
2017-07-15T05:06:48.069Z,10
2017-07-15T05:07:57.333Z,10
2017-07-15T05:09:06.913Z,10
2017-07-15T05:10:15.881Z,10
2017-07-15T05:11:24.835Z,10
2017-07-15T05:12:34.109Z,10
2017-07-15T05:13:43.700Z,5
2017-07-15T05:14:52.649Z,5
2017-07-15T05:16:01.916Z,5
2017-07-15T05:17:10.866Z,5
2017-07-15T05:18:19.821Z,5
2017-07-15T05:19:28.781Z,5
2017-07-15T05:20:37.734Z,5
2017-07-15T05:21:46.719Z,5
2017-07-15T05:22:55.980Z,5
2017-07-15T05:24:04.627Z,5
2017-07-15T05:25:14.218Z,5
2017-07-15T05:26:23.175Z,5
2017-07-15T05:27:32.144Z,5
2017-07-15T05:28:41.420Z,5
2017-07-15T05:29:50.375Z,10
2017-07-15T05:30:59.655Z,10
2017-07-15T05:32:08.671Z,10
2017-07-15T05:33:17.951Z,10
2017-07-15T05:34:27.550Z,15
2017-07-15T05:35:36.506Z,15
2017-07-15T05:36:45.148Z,15
2017-07-15T05:37:54.103Z,20
2017-07-15T05:39:03.073Z,20
2017-07-15T05:40:12.029Z,30
2017-07-15T05:41:21.305Z,45
2017-07-15T05:42:30.274Z,45
2017-07-15T05:43:39.238Z,40
2017-07-15T05:44:47.877Z,35
2017-07-15T05:45:56.823Z,35
2017-07-15T05:47:06.112Z,30
2017-07-15T05:48:14.754Z,25
2017-07-15T05:49:24.029Z,20
2017-07-15T05:50:32.670Z,20
2017-07-15T05:51:41.942Z,20
2017-07-15T05:52:50.899Z,20
2017-07-15T05:53:59.856Z,25
2017-07-15T05:55:09.426Z,25
2017-07-15T05:56:18.435Z,25
2017-07-15T05:57:27.706Z,30
2017-07-15T05:58:36.352Z,30
2017-07-15T05:59:44.985Z,30
2017-07-15T06:00:54.279Z,25
2017-07-15T06:02:03.242Z,25
2017-07-15T06:03:12.507Z,30
2017-07-15T06:04:21.461Z,20
2017-07-15T06:05:30.411Z,20
2017-07-15T06:06:39.725Z,25
2017-07-15T06:07:48.696Z,30
2017-07-15T06:08:58.278Z,70
2017-07-15T06:10:07.228Z,105
2017-07-15T06:11:16.503Z,90
2017-07-15T06:12:25.778Z,100
2017-07-15T06:13:35.050Z,120
2017-07-15T06:14:44.321Z,195
2017-07-15T06:15:53.590Z,200
2017-07-15T06:17:02.243Z,215
2017-07-15T06:18:10.886Z,215
2017-07-15T06:19:20.494Z,130
2017-07-15T06:20:29.153Z,185
2017-07-15T06:21:39.360Z,60
2017-07-15T06:22:48.009Z,60
2017-07-15T06:23:56.658Z,100
2017-07-15T06:25:05.929Z,255
2017-07-15T06:26:15.235Z,115
2017-07-15T06:27:24.895Z,70
2017-07-15T06:28:34.269Z,65
2017-07-15T06:29:43.545Z,60
2017-07-15T06:30:52.193Z,65
2017-07-15T06:32:02.603Z,70
2017-07-15T06:33:11.244Z,75
2017-07-15T06:34:20.208Z,85
2017-07-15T06:35:30.119Z,85
2017-07-15T06:36:39.580Z,85
2017-07-15T06:37:48.326Z,85
2017-07-15T06:38:58.597Z,85
2017-07-15T06:40:07.566Z,95
2017-07-15T06:41:16.609Z,130
2017-07-15T06:42:26.285Z,180
2017-07-15T06:43:35.563Z,135
2017-07-15T06:44:44.854Z,125
2017-07-15T06:45:54.442Z,125
2017-07-15T06:47:03.398Z,150
2017-07-15T06:48:12.666Z,135
2017-07-15T06:49:22.250Z,130
2017-07-15T06:50:31.517Z,130
2017-07-15T06:51:40.475Z,95
2017-07-15T06:52:49.431Z,95
2017-07-15T06:53:58.385Z,90
2017-07-15T06:55:07.045Z,90
2017-07-15T06:56:15.696Z,85
2017-07-15T06:57:25.291Z,90
2017-07-15T06:58:34.572Z,90
2017-07-15T06:59:43.530Z,95
2017-07-15T07:00:52.809Z,90
2017-07-15T07:02:01.778Z,85
2017-07-15T07:03:11.070Z,80
2017-07-15T07:04:19.720Z,85
2017-07-15T07:05:28.675Z,100
2017-07-15T07:06:37.644Z,105
2017-07-15T07:07:47.299Z,125
2017-07-15T07:08:56.257Z,115
2017-07-15T07:10:05.232Z,115
2017-07-15T07:11:13.870Z,260
2017-07-15T07:12:23.145Z,215
2017-07-15T07:13:32.093Z,395
2017-07-15T07:14:41.043Z,125
2017-07-15T07:15:50.643Z,140
2017-07-15T07:16:59.941Z,165
2017-07-15T07:18:08.905Z,140
2017-07-15T07:19:17.539Z,180
2017-07-15T07:20:26.509Z,150
2017-07-15T07:21:35.788Z,220
2017-07-15T07:22:44.430Z,185
2017-07-15T07:23:53.069Z,140
2017-07-15T07:25:01.729Z,140
2017-07-15T07:26:10.373Z,155
2017-07-15T07:27:19.017Z,130
2017-07-15T07:28:27.986Z,240
2017-07-15T07:29:37.265Z,175
2017-07-15T07:30:46.225Z,170
2017-07-15T07:31:55.209Z,220
2017-07-15T07:33:04.478Z,200
2017-07-15T07:34:13.774Z,215
2017-07-15T07:35:23.363Z,660
2017-07-15T07:36:33.039Z,700
2017-07-15T07:37:41.690Z,755
2017-07-15T07:38:50.970Z,705
2017-07-15T07:39:59.936Z,655
2017-07-15T07:41:09.383Z,315
2017-07-15T07:42:18.649Z,415
2017-07-15T07:43:27.911Z,400
2017-07-15T07:44:36.900Z,1020
2017-07-15T07:45:46.178Z,985
2017-07-15T07:46:54.824Z,985
2017-07-15T07:48:03.784Z,475
2017-07-15T07:49:12.434Z,975
2017-07-15T07:50:21.470Z,185
2017-07-15T07:51:30.437Z,125
2017-07-15T07:52:39.399Z,125
2017-07-15T07:53:48.768Z,115
2017-07-15T07:54:57.725Z,195
2017-07-15T07:56:06.405Z,1075
2017-07-15T07:57:15.678Z,215
2017-07-15T07:58:24.329Z,130
2017-07-15T07:59:33.616Z,175
2017-07-15T08:00:42.617Z,390
2017-07-15T08:01:51.275Z,305
2017-07-15T08:03:00.255Z,1125
2017-07-15T08:04:09.534Z,980
2017-07-15T08:05:18.492Z,805
2017-07-15T08:06:27.136Z,1220
2017-07-15T08:07:36.133Z,1135
2017-07-15T08:08:44.807Z,1340
2017-07-15T08:09:54.093Z,935
2017-07-15T08:11:03.063Z,1045
2017-07-15T08:12:12.066Z,1150
2017-07-15T08:13:21.340Z,1025
2017-07-15T08:14:30.937Z,750
2017-07-15T08:15:39.609Z,1095
2017-07-15T08:16:48.276Z,480
2017-07-15T08:17:58.194Z,295
2017-07-15T08:19:07.471Z,165
2017-07-15T08:20:16.434Z,735
2017-07-15T08:21:25.421Z,1460
2017-07-15T08:22:34.711Z,1520
2017-07-15T08:23:43.669Z,1310
2017-07-15T08:24:52.960Z,900
2017-07-15T08:26:01.935Z,1155
2017-07-15T08:27:10.577Z,1390
2017-07-15T08:28:19.871Z,1360
2017-07-15T08:29:28.854Z,1235
2017-07-15T08:30:37.843Z,1225
2017-07-15T08:31:46.809Z,1375
2017-07-15T08:32:56.422Z,1515
2017-07-15T08:34:05.388Z,1450
2017-07-15T08:35:14.373Z,510
2017-07-15T08:36:23.334Z,1220
2017-07-15T08:37:32.613Z,1235
2017-07-15T08:38:41.573Z,1075
2017-07-15T08:39:51.489Z,825
2017-07-15T08:41:00.449Z,1395
2017-07-15T08:42:09.733Z,1420
2017-07-15T08:43:18.707Z,1530
2017-07-15T08:44:27.985Z,1515
2017-07-15T08:45:36.638Z,1465
2017-07-15T08:46:45.302Z,1285
2017-07-15T08:47:54.288Z,540
2017-07-15T08:49:03.025Z,885
2017-07-15T08:50:12.009Z,1450
2017-07-15T08:51:21.291Z,1360
2017-07-15T08:52:30.576Z,85
2017-07-15T08:53:39.547Z,75
2017-07-15T08:54:48.521Z,65
2017-07-15T08:55:58.172Z,1370
2017-07-15T08:57:07.455Z,1190
2017-07-15T08:58:16.413Z,85
2017-07-15T08:59:26.018Z,160
2017-07-15T09:00:35.281Z,120
2017-07-15T09:01:44.564Z,140
2017-07-15T09:02:53.617Z,110
2017-07-15T09:04:02.903Z,100
2017-07-15T09:05:11.867Z,85
2017-07-15T09:06:21.481Z,65
2017-07-15T09:07:31.452Z,60
2017-07-15T09:08:40.147Z,65
2017-07-15T09:09:49.123Z,65
2017-07-15T09:10:58.093Z,60
2017-07-15T09:12:07.379Z,55
2017-07-15T09:13:17.305Z,50
2017-07-15T09:14:59.013Z,50
2017-07-15T09:16:07.700Z,45
2017-07-15T09:17:16.353Z,45
2017-07-15T09:18:25.479Z,35
2017-07-15T09:19:34.787Z,50
2017-07-15T09:20:43.747Z,50
2017-07-15T09:21:53.036Z,45
2017-07-15T09:23:02.014Z,55
2017-07-15T09:24:11.038Z,45
2017-07-15T09:25:20.004Z,40
2017-07-15T09:26:29.290Z,40
2017-07-15T09:27:37.948Z,55
2017-07-15T09:28:47.549Z,55
2017-07-15T09:29:56.512Z,60
2017-07-15T09:31:05.174Z,65
2017-07-15T09:32:13.807Z,75
2017-07-15T09:33:23.093Z,65
2017-07-15T09:34:31.747Z,75
2017-07-15T09:35:40.707Z,65
2017-07-15T09:36:50.348Z,60
2017-07-15T09:37:59.043Z,55
2017-07-15T09:39:08.318Z,50
2017-07-15T09:40:17.335Z,55
2017-07-15T09:41:26.449Z,50
2017-07-15T09:42:35.729Z,45
2017-07-15T09:43:45.326Z,40
2017-07-15T09:44:54.609Z,40
2017-07-15T09:46:03.885Z,35
2017-07-15T09:47:13.008Z,45
2017-07-15T09:48:21.652Z,40
2017-07-15T09:49:30.923Z,55
2017-07-15T09:50:39.570Z,50
2017-07-15T09:51:48.872Z,55
2017-07-15T09:52:57.949Z,50
2017-07-15T09:54:06.908Z,40
2017-07-15T09:55:15.885Z,55
2017-07-15T09:56:24.877Z,55
2017-07-15T09:57:33.846Z,55
2017-07-15T09:58:42.979Z,65
2017-07-15T09:59:51.973Z,60
2017-07-15T10:01:00.943Z,65
2017-07-15T10:02:09.588Z,55
2017-07-15T10:03:18.871Z,50
2017-07-15T10:04:28.496Z,45
2017-07-15T10:05:37.154Z,40
2017-07-15T10:06:45.814Z,45
2017-07-15T10:07:54.796Z,45
2017-07-15T10:09:03.758Z,40
2017-07-15T10:10:13.081Z,40
2017-07-15T10:11:21.726Z,45
2017-07-15T10:12:31.037Z,40
2017-07-15T10:13:39.689Z,40
2017-07-15T10:14:48.973Z,45
2017-07-15T10:15:58.254Z,45
2017-07-15T10:17:07.872Z,50
2017-07-15T10:18:17.485Z,45
2017-07-15T10:19:26.197Z,45
2017-07-15T10:20:34.840Z,45
2017-07-15T10:21:43.816Z,45
2017-07-15T10:22:53.091Z,40
2017-07-15T10:24:02.058Z,55
2017-07-15T10:25:10.766Z,50
2017-07-15T10:26:20.053Z,55
2017-07-15T10:27:29.178Z,55
2017-07-15T10:28:37.849Z,55
2017-07-15T10:29:46.496Z,50
2017-07-15T10:30:55.456Z,55
2017-07-15T10:32:04.742Z,45
2017-07-15T10:33:14.279Z,45
2017-07-15T10:34:22.943Z,40
2017-07-15T10:35:32.547Z,35
2017-07-15T10:36:41.865Z,30
2017-07-15T10:37:50.518Z,30
2017-07-15T10:39:00.121Z,35
2017-07-15T10:40:09.409Z,35
2017-07-15T10:41:18.062Z,40
2017-07-15T10:42:26.712Z,35
2017-07-15T10:43:35.356Z,40
2017-07-15T10:44:44.720Z,45
2017-07-15T10:45:54.007Z,45
2017-07-15T10:47:02.978Z,40
2017-07-15T10:48:11.942Z,45
2017-07-15T10:49:21.572Z,45
2017-07-15T10:50:30.694Z,50
2017-07-15T10:51:39.659Z,50
2017-07-15T10:52:48.319Z,40
2017-07-15T10:53:57.617Z,40
2017-07-15T10:55:06.578Z,45
2017-07-15T10:56:15.380Z,45
2017-07-15T10:57:24.342Z,45
2017-07-15T10:58:33.023Z,45
2017-07-15T10:59:42.049Z,40
2017-07-15T11:00:51.069Z,40
2017-07-15T11:02:00.185Z,35
2017-07-15T11:03:09.482Z,35
2017-07-15T11:04:18.794Z,40
2017-07-15T11:05:28.068Z,45
2017-07-15T11:06:37.335Z,45
2017-07-15T11:07:46.437Z,50
2017-07-15T11:08:55.073Z,55
2017-07-15T11:10:04.361Z,55
2017-07-15T11:11:13.335Z,55
2017-07-15T11:12:22.317Z,55
2017-07-15T11:13:31.259Z,50
2017-07-15T11:14:40.218Z,45
2017-07-15T11:15:49.179Z,45
2017-07-15T11:16:58.772Z,45
2017-07-15T11:18:08.678Z,50
2017-07-15T11:19:18.156Z,45
2017-07-15T11:20:27.114Z,40
2017-07-15T11:21:36.072Z,40
2017-07-15T11:22:45.033Z,30
2017-07-15T11:23:53.678Z,25
2017-07-15T11:25:03.160Z,25
2017-07-15T11:26:12.128Z,25
2017-07-15T11:27:21.087Z,25
2017-07-15T11:28:30.679Z,30
2017-07-15T11:29:39.984Z,35
2017-07-15T11:30:49.628Z,40
2017-07-15T11:31:58.582Z,50
2017-07-15T11:33:07.858Z,45
2017-07-15T11:34:16.819Z,40
2017-07-15T11:35:26.730Z,40
2017-07-15T11:36:35.839Z,35
2017-07-15T11:37:44.815Z,30
2017-07-15T11:38:53.772Z,25
2017-07-15T11:40:03.364Z,25
2017-07-15T11:41:12.334Z,25
2017-07-15T11:42:20.976Z,20
2017-07-15T11:43:29.937Z,20
2017-07-15T11:44:38.891Z,25
2017-07-15T11:45:47.872Z,30
2017-07-15T11:46:56.514Z,25
2017-07-15T11:48:05.328Z,30
2017-07-15T11:49:14.288Z,30
2017-07-15T11:50:23.578Z,35
2017-07-15T11:51:32.235Z,35
2017-07-15T11:52:41.199Z,35
2017-07-15T11:53:50.473Z,40
2017-07-15T11:54:59.458Z,45
2017-07-15T11:56:08.748Z,45
2017-07-15T11:57:17.740Z,45
2017-07-15T11:58:27.007Z,50
2017-07-15T11:59:35.856Z,50
2017-07-15T12:00:45.120Z,50
2017-07-15T12:01:54.079Z,50
2017-07-15T12:03:03.035Z,45
2017-07-15T12:04:11.698Z,50
2017-07-15T12:05:20.394Z,50
2017-07-15T12:06:29.380Z,50
2017-07-15T12:07:38.325Z,50
2017-07-15T12:08:47.301Z,45
2017-07-15T12:09:56.254Z,40
2017-07-15T12:11:05.374Z,40
2017-07-15T12:12:14.642Z,35
2017-07-15T12:13:23.928Z,35
2017-07-15T12:14:32.882Z,40
2017-07-15T12:15:41.532Z,40
2017-07-15T12:16:50.852Z,45
2017-07-15T12:18:00.152Z,40
2017-07-15T12:19:08.789Z,45
2017-07-15T12:20:17.430Z,45
2017-07-15T12:21:26.078Z,45
2017-07-15T12:22:35.140Z,45
2017-07-15T12:23:44.411Z,50
2017-07-15T12:24:53.375Z,50
2017-07-15T12:26:02.348Z,50
2017-07-15T12:27:11.938Z,50
2017-07-15T12:28:21.101Z,55
2017-07-15T12:29:29.743Z,50
2017-07-15T12:30:39.352Z,50
2017-07-15T12:31:48.625Z,50
2017-07-15T12:32:57.904Z,55
2017-07-15T12:34:06.712Z,55
2017-07-15T12:35:15.693Z,55
2017-07-15T12:36:24.343Z,55
2017-07-15T12:37:33.003Z,55
2017-07-15T12:38:42.621Z,55
2017-07-15T12:39:51.874Z,50
2017-07-15T12:41:01.457Z,45
2017-07-15T12:42:10.105Z,45
2017-07-15T12:43:19.061Z,40
2017-07-15T12:44:28.031Z,40
2017-07-15T12:45:37.347Z,45
2017-07-15T12:46:45.990Z,45
2017-07-15T12:47:54.668Z,45
2017-07-15T12:49:03.654Z,45
2017-07-15T12:50:12.613Z,40
2017-07-15T12:51:22.429Z,45
2017-07-15T12:52:31.704Z,45
2017-07-15T12:53:41.290Z,50
2017-07-15T12:54:50.249Z,50
2017-07-15T12:55:58.902Z,50
2017-07-15T12:57:07.895Z,45
2017-07-15T12:58:17.171Z,50
2017-07-15T12:59:26.130Z,45
2017-07-15T13:00:34.790Z,45
2017-07-15T13:01:44.375Z,45
2017-07-15T13:02:53.325Z,45
2017-07-15T13:04:02.906Z,45
2017-07-15T13:05:11.616Z,45
2017-07-15T13:06:20.878Z,45
2017-07-15T13:07:30.161Z,45
2017-07-15T13:08:39.469Z,45
2017-07-15T13:09:48.443Z,45
2017-07-15T13:10:57.097Z,40
2017-07-15T13:12:06.375Z,40
2017-07-15T13:13:15.684Z,40
2017-07-15T13:14:25.128Z,40
2017-07-15T13:15:34.410Z,40
2017-07-15T13:16:43.372Z,40
2017-07-15T13:17:52.026Z,45
2017-07-15T13:19:01.656Z,45
2017-07-15T13:20:11.415Z,45
2017-07-15T13:21:20.067Z,45
2017-07-15T13:22:29.039Z,40
2017-07-15T13:23:38.308Z,40
2017-07-15T13:24:47.281Z,40
2017-07-15T13:25:56.625Z,35
2017-07-15T13:27:05.589Z,35
2017-07-15T13:28:14.876Z,35
2017-07-15T13:29:23.844Z,35
2017-07-15T13:30:33.117Z,35
2017-07-15T13:31:42.126Z,35
2017-07-15T13:32:51.404Z,35
2017-07-15T13:34:00.089Z,35
2017-07-15T13:35:08.734Z,35
2017-07-15T13:36:18.637Z,40
2017-07-15T13:37:27.754Z,40
2017-07-15T13:38:36.724Z,40
2017-07-15T13:39:46.011Z,45
2017-07-15T13:40:55.002Z,45
2017-07-15T13:42:04.291Z,45
2017-07-15T13:43:13.318Z,45
2017-07-15T13:44:21.969Z,40
2017-07-15T13:45:30.948Z,45
2017-07-15T13:46:39.953Z,45
2017-07-15T13:47:48.920Z,40
2017-07-15T13:48:58.344Z,40
2017-07-15T13:50:07.411Z,35
2017-07-15T13:51:16.370Z,40
2017-07-15T13:52:25.333Z,40
2017-07-15T13:53:33.981Z,40
2017-07-15T13:54:43.102Z,40
2017-07-15T13:55:52.077Z,40
2017-07-15T13:57:01.043Z,35
2017-07-15T13:58:09.687Z,35
2017-07-15T13:59:18.645Z,35
2017-07-15T14:00:27.348Z,35
2017-07-15T14:01:36.638Z,35
2017-07-15T14:02:45.594Z,35
2017-07-15T14:03:54.552Z,35
2017-07-15T14:05:03.538Z,35
2017-07-15T14:06:12.970Z,30
2017-07-15T14:07:21.624Z,35
2017-07-15T14:08:30.661Z,35
2017-07-15T14:09:39.322Z,35
2017-07-15T14:10:48.304Z,35
2017-07-15T14:11:57.640Z,35
2017-07-15T14:13:06.921Z,35
2017-07-15T14:14:15.890Z,35
2017-07-15T14:15:24.868Z,35
2017-07-15T14:16:34.150Z,35
2017-07-15T14:17:43.823Z,35
2017-07-15T14:18:52.798Z,35
2017-07-15T14:20:01.473Z,35
2017-07-15T14:21:10.156Z,40
2017-07-15T14:22:18.801Z,40
2017-07-15T14:23:27.440Z,40
2017-07-15T14:24:36.082Z,40
2017-07-15T14:25:44.750Z,40
2017-07-15T14:26:53.415Z,40
2017-07-15T14:28:02.369Z,40
2017-07-15T14:29:11.346Z,45
2017-07-15T14:30:20.621Z,45
2017-07-15T14:31:29.272Z,45
2017-07-15T14:32:37.921Z,40
2017-07-15T14:33:46.889Z,40
2017-07-15T14:34:55.841Z,40
2017-07-15T14:36:04.482Z,40
2017-07-15T14:37:13.454Z,40
2017-07-15T14:38:22.475Z,45
2017-07-15T14:39:31.430Z,45
2017-07-15T14:40:40.221Z,40
2017-07-15T14:41:49.179Z,40
2017-07-15T14:42:58.452Z,40
2017-07-15T14:44:07.090Z,40
2017-07-15T14:45:16.359Z,40
2017-07-15T14:46:25.103Z,40
2017-07-15T14:47:34.056Z,35
2017-07-15T14:48:43.014Z,35
2017-07-15T14:49:52.298Z,35
2017-07-15T14:51:01.579Z,35
2017-07-15T14:52:10.691Z,35
2017-07-15T14:53:19.649Z,35
2017-07-15T14:54:29.254Z,35
2017-07-15T14:55:38.245Z,35
2017-07-15T14:56:47.217Z,35
2017-07-15T14:57:56.925Z,35
2017-07-15T14:59:06.829Z,40
2017-07-15T15:00:15.789Z,40
2017-07-15T15:01:25.064Z,40
2017-07-15T15:02:34.337Z,45
2017-07-15T15:03:43.316Z,40
2017-07-15T15:04:52.585Z,40
2017-07-15T15:06:01.915Z,40
2017-07-15T15:07:10.873Z,40
2017-07-15T15:08:20.155Z,40
2017-07-15T15:09:29.584Z,40
2017-07-15T15:10:38.554Z,40
2017-07-15T15:11:47.531Z,35
2017-07-15T15:12:56.517Z,35
2017-07-15T15:14:05.184Z,35
2017-07-15T15:15:14.524Z,35
2017-07-15T15:16:23.490Z,35
2017-07-15T15:17:33.071Z,30
2017-07-15T15:18:42.339Z,30
2017-07-15T15:19:52.236Z,30
2017-07-15T15:21:01.932Z,30
2017-07-15T15:22:10.904Z,30
2017-07-15T15:23:19.892Z,30
2017-07-15T15:24:28.876Z,30
2017-07-15T15:25:38.489Z,30
2017-07-15T15:26:47.455Z,30
2017-07-15T15:27:56.115Z,30
2017-07-15T15:29:05.078Z,30
2017-07-15T15:30:14.361Z,30
2017-07-15T15:31:23.322Z,30
2017-07-15T15:32:33.524Z,30
2017-07-15T15:33:42.841Z,35
2017-07-15T15:34:51.804Z,35
2017-07-15T15:36:00.769Z,35
2017-07-15T15:37:09.431Z,35
2017-07-15T15:38:18.718Z,30
2017-07-15T15:39:27.689Z,30
2017-07-15T15:40:36.662Z,30
2017-07-15T15:41:45.935Z,30
2017-07-15T15:42:54.577Z,25
2017-07-15T15:44:03.908Z,20
2017-07-15T15:45:13.192Z,20
2017-07-15T15:46:22.145Z,20
2017-07-15T15:47:31.421Z,15
2017-07-15T15:48:40.692Z,15
2017-07-15T15:49:49.404Z,15
2017-07-15T15:50:58.685Z,20
2017-07-15T15:52:07.648Z,20
2017-07-15T15:53:17.255Z,20
2017-07-15T15:54:26.217Z,20
2017-07-15T15:55:35.236Z,20
2017-07-15T15:56:43.888Z,20
2017-07-15T15:57:52.850Z,20
2017-07-15T15:59:01.491Z,20
2017-07-15T16:00:10.156Z,20
2017-07-15T16:01:18.801Z,20
2017-07-15T16:02:28.102Z,25
2017-07-15T16:03:37.374Z,25
2017-07-15T16:04:46.655Z,25
2017-07-15T16:05:55.941Z,25
2017-07-15T16:07:05.540Z,25
2017-07-15T16:08:14.803Z,25
2017-07-15T16:09:24.087Z,30
2017-07-15T16:10:33.349Z,30
2017-07-15T16:11:42.936Z,30
2017-07-15T16:12:51.686Z,30
2017-07-15T16:14:00.971Z,30
2017-07-15T16:15:10.253Z,25
2017-07-15T16:16:19.551Z,25
2017-07-15T16:17:28.842Z,25
2017-07-15T16:18:37.794Z,25
2017-07-15T16:19:46.762Z,25
2017-07-15T16:20:55.716Z,25
2017-07-15T16:22:04.675Z,25
2017-07-15T16:23:13.626Z,25
2017-07-15T16:24:22.269Z,25
2017-07-15T16:25:31.548Z,25
2017-07-15T16:26:40.814Z,20
2017-07-15T16:27:49.473Z,20
2017-07-15T16:28:58.759Z,20